createdAt,value
2019-01-09T00:00:26.485Z,0
2019-01-09T00:01:07.038Z,0
2019-01-09T00:01:47.585Z,0
2019-01-09T00:02:28.143Z,0
2019-01-09T00:03:08.712Z,0
2019-01-09T00:03:49.270Z,0
2019-01-09T00:04:29.815Z,0
2019-01-09T00:05:10.388Z,0
2019-01-09T00:05:50.951Z,0
2019-01-09T00:06:31.519Z,0
2019-01-09T00:07:12.070Z,0
2019-01-09T00:07:52.634Z,0
2019-01-09T00:08:33.205Z,0
2019-01-09T00:09:13.763Z,0
2019-01-09T00:09:54.315Z,0
2019-01-09T00:10:34.863Z,0
2019-01-09T00:11:15.418Z,0
2019-01-09T00:11:56.008Z,0
2019-01-09T00:12:36.568Z,0
2019-01-09T00:13:17.135Z,0
2019-01-09T00:13:57.682Z,0
2019-01-09T00:14:38.241Z,0
2019-01-09T00:15:18.793Z,0
2019-01-09T00:15:59.364Z,0
2019-01-09T00:16:39.949Z,0
2019-01-09T00:17:20.494Z,0
2019-01-09T00:18:01.079Z,0
2019-01-09T00:18:41.627Z,0
2019-01-09T00:19:22.182Z,0
2019-01-09T00:20:02.758Z,0
2019-01-09T00:20:43.315Z,0
2019-01-09T00:21:23.869Z,0
2019-01-09T00:22:04.447Z,0
2019-01-09T00:22:45.036Z,0
2019-01-09T00:23:25.807Z,0
2019-01-09T00:24:06.368Z,0
2019-01-09T00:24:46.931Z,0
2019-01-09T00:25:27.498Z,0
2019-01-09T00:26:08.112Z,0
2019-01-09T00:26:48.685Z,0
2019-01-09T00:27:29.241Z,0
2019-01-09T00:28:09.803Z,0
2019-01-09T00:28:50.345Z,0
2019-01-09T00:29:30.921Z,0
2019-01-09T00:30:11.474Z,0
2019-01-09T00:30:52.035Z,0
2019-01-09T00:31:32.588Z,0
2019-01-09T00:32:13.145Z,0
2019-01-09T00:32:53.713Z,0
2019-01-09T00:33:34.270Z,0
2019-01-09T00:34:14.814Z,0
2019-01-09T00:34:55.385Z,0
2019-01-09T00:35:37.364Z,0
2019-01-09T00:36:16.482Z,0
2019-01-09T00:36:57.064Z,0
2019-01-09T00:37:37.631Z,0
2019-01-09T00:38:18.191Z,0
2019-01-09T00:38:58.763Z,0
2019-01-09T00:39:39.310Z,0
2019-01-09T00:40:19.902Z,0
2019-01-09T00:41:00.462Z,0
2019-01-09T00:41:41.074Z,0
2019-01-09T00:42:21.626Z,0
2019-01-09T00:43:02.197Z,0
2019-01-09T00:43:42.746Z,0
2019-01-09T00:44:23.301Z,0
2019-01-09T00:45:03.864Z,0
2019-01-09T00:45:44.425Z,0
2019-01-09T00:46:24.986Z,0
2019-01-09T00:47:05.613Z,0
2019-01-09T00:47:46.186Z,0
2019-01-09T00:48:26.736Z,0
2019-01-09T00:49:07.291Z,0
2019-01-09T00:49:47.855Z,0
2019-01-09T00:50:28.415Z,0
2019-01-09T00:51:08.965Z,0
2019-01-09T00:51:49.531Z,0
2019-01-09T00:52:30.086Z,0
2019-01-09T00:53:10.687Z,0
2019-01-09T00:53:51.235Z,0
2019-01-09T00:54:31.789Z,0
2019-01-09T00:55:12.344Z,0
2019-01-09T00:55:52.925Z,0
2019-01-09T00:56:33.450Z,0
2019-01-09T00:57:14.044Z,0
2019-01-09T00:57:54.595Z,0
2019-01-09T00:58:35.156Z,0
2019-01-09T00:59:15.725Z,0
2019-01-09T00:59:56.275Z,0
2019-01-09T01:00:36.863Z,0
2019-01-09T01:01:17.387Z,0
2019-01-09T01:01:57.949Z,0
2019-01-09T01:02:38.496Z,0
2019-01-09T01:03:19.048Z,0
2019-01-09T01:03:59.623Z,0
2019-01-09T01:04:40.203Z,0
2019-01-09T01:05:20.778Z,0
2019-01-09T01:06:01.325Z,0
2019-01-09T01:06:41.916Z,0
2019-01-09T01:07:22.475Z,0
2019-01-09T01:08:03.031Z,0
2019-01-09T01:08:43.594Z,0
2019-01-09T01:09:24.152Z,0
2019-01-09T01:10:04.709Z,0
2019-01-09T01:10:45.412Z,0
2019-01-09T01:11:25.984Z,0
2019-01-09T01:12:06.559Z,0
2019-01-09T01:12:47.137Z,0
2019-01-09T01:13:27.693Z,0
2019-01-09T01:14:08.329Z,0
2019-01-09T01:14:48.878Z,0
2019-01-09T01:15:29.470Z,0
2019-01-09T01:16:10.024Z,0
2019-01-09T01:16:50.588Z,0
2019-01-09T01:17:31.154Z,0
2019-01-09T01:18:11.717Z,0
2019-01-09T01:18:52.279Z,0
2019-01-09T01:19:32.841Z,0
2019-01-09T01:20:13.425Z,0
2019-01-09T01:20:53.987Z,0
2019-01-09T01:21:34.533Z,0
2019-01-09T01:22:15.118Z,0
2019-01-09T01:22:55.661Z,0
2019-01-09T01:23:36.220Z,0
2019-01-09T01:24:16.787Z,0
2019-01-09T01:24:57.345Z,0
2019-01-09T01:25:37.907Z,0
2019-01-09T01:26:18.472Z,0
2019-01-09T01:26:59.022Z,0
2019-01-09T01:27:39.571Z,0
2019-01-09T01:28:20.145Z,0
2019-01-09T01:29:00.708Z,0
2019-01-09T01:29:41.302Z,0
2019-01-09T01:30:21.857Z,0
2019-01-09T01:31:02.434Z,0
2019-01-09T01:31:42.989Z,0
2019-01-09T01:32:23.570Z,0
2019-01-09T01:33:04.126Z,0
2019-01-09T01:33:44.694Z,0
2019-01-09T01:34:25.504Z,0
2019-01-09T01:35:06.062Z,0
2019-01-09T01:35:54.432Z,0
2019-01-09T01:36:27.178Z,0
2019-01-09T01:37:07.721Z,0
2019-01-09T01:37:48.312Z,0
2019-01-09T01:38:28.875Z,0
2019-01-09T01:39:09.429Z,0
2019-01-09T01:39:50.003Z,0
2019-01-09T01:40:30.555Z,0
2019-01-09T01:41:11.126Z,0
2019-01-09T01:41:51.723Z,0
2019-01-09T01:42:32.284Z,0
2019-01-09T01:43:12.950Z,0
2019-01-09T01:43:53.529Z,0
2019-01-09T01:44:34.104Z,0
2019-01-09T01:45:14.670Z,0
2019-01-09T01:45:55.236Z,0
2019-01-09T01:46:35.809Z,0
2019-01-09T01:47:16.368Z,0
2019-01-09T01:47:56.939Z,0
2019-01-09T01:48:37.510Z,0
2019-01-09T01:49:18.091Z,0
2019-01-09T01:49:58.649Z,0
2019-01-09T01:50:39.213Z,0
2019-01-09T01:51:19.767Z,0
2019-01-09T01:52:00.315Z,0
2019-01-09T01:52:40.868Z,0
2019-01-09T01:53:21.452Z,0
2019-01-09T01:54:02.030Z,0
2019-01-09T01:54:42.589Z,0
2019-01-09T01:55:23.152Z,0
2019-01-09T01:56:03.701Z,0
2019-01-09T01:56:44.294Z,0
2019-01-09T01:57:24.882Z,0
2019-01-09T01:58:05.442Z,0
2019-01-09T01:58:46.022Z,0
2019-01-09T01:59:26.610Z,0
2019-01-09T02:00:07.166Z,0
2019-01-09T02:00:47.731Z,0
2019-01-09T02:01:28.290Z,0
2019-01-09T02:02:08.861Z,0
2019-01-09T02:02:49.417Z,0
2019-01-09T02:03:29.976Z,0
2019-01-09T02:04:10.532Z,0
2019-01-09T02:04:51.075Z,0
2019-01-09T02:05:31.636Z,0
2019-01-09T02:06:12.196Z,0
2019-01-09T02:06:52.747Z,0
2019-01-09T02:07:33.299Z,0
2019-01-09T02:08:13.868Z,0
2019-01-09T02:08:54.499Z,0
2019-01-09T02:09:35.059Z,0
2019-01-09T02:10:15.623Z,0
2019-01-09T02:10:56.189Z,0
2019-01-09T02:11:36.759Z,0
2019-01-09T02:12:17.319Z,0
2019-01-09T02:12:57.936Z,0
2019-01-09T02:13:38.473Z,0
2019-01-09T02:14:19.057Z,0
2019-01-09T02:14:59.659Z,0
2019-01-09T02:15:40.225Z,0
2019-01-09T02:16:20.816Z,0
2019-01-09T02:17:01.381Z,0
2019-01-09T02:17:41.957Z,0
2019-01-09T02:18:22.547Z,0
2019-01-09T02:19:03.112Z,0
2019-01-09T02:19:43.680Z,0
2019-01-09T02:20:24.229Z,0
2019-01-09T02:21:04.792Z,0
2019-01-09T02:21:45.359Z,0
2019-01-09T02:22:25.958Z,0
2019-01-09T02:23:06.530Z,0
2019-01-09T02:23:47.094Z,0
2019-01-09T02:24:27.693Z,0
2019-01-09T02:25:08.267Z,0
2019-01-09T02:25:48.822Z,0
2019-01-09T02:26:29.384Z,0
2019-01-09T02:27:09.961Z,0
2019-01-09T02:27:50.536Z,0
2019-01-09T02:28:31.084Z,0
2019-01-09T02:29:11.662Z,0
2019-01-09T02:29:52.232Z,0
2019-01-09T02:30:32.806Z,0
2019-01-09T02:31:13.475Z,0
2019-01-09T02:31:53.913Z,0
2019-01-09T02:32:34.478Z,0
2019-01-09T02:33:15.042Z,0
2019-01-09T02:33:55.622Z,0
2019-01-09T02:34:36.194Z,0
2019-01-09T02:35:16.766Z,0
2019-01-09T02:35:57.330Z,0
2019-01-09T02:36:37.910Z,0
2019-01-09T02:37:18.458Z,0
2019-01-09T02:37:59.006Z,0
2019-01-09T02:38:39.573Z,0
2019-01-09T02:39:20.146Z,0
2019-01-09T02:40:00.739Z,0
2019-01-09T02:40:41.311Z,0
2019-01-09T02:41:21.942Z,0
2019-01-09T02:42:02.419Z,0
2019-01-09T02:42:42.982Z,0
2019-01-09T02:43:23.551Z,0
2019-01-09T02:44:04.106Z,0
2019-01-09T02:44:44.685Z,0
2019-01-09T02:45:25.256Z,0
2019-01-09T02:46:05.849Z,0
2019-01-09T02:46:46.391Z,0
2019-01-09T02:47:26.946Z,0
2019-01-09T02:48:07.520Z,0
2019-01-09T02:48:48.656Z,0
2019-01-09T02:49:28.649Z,0
2019-01-09T02:50:09.210Z,0
2019-01-09T02:50:49.771Z,0
2019-01-09T02:51:30.323Z,0
2019-01-09T02:52:10.909Z,0
2019-01-09T02:52:51.513Z,0
2019-01-09T02:53:32.072Z,0
2019-01-09T02:54:12.631Z,0
2019-01-09T02:54:53.187Z,0
2019-01-09T02:55:33.748Z,0
2019-01-09T02:56:14.315Z,0
2019-01-09T02:56:54.904Z,0
2019-01-09T02:57:35.453Z,0
2019-01-09T02:58:16.017Z,0
2019-01-09T02:58:56.567Z,0
2019-01-09T02:59:37.179Z,0
2019-01-09T03:00:17.747Z,0
2019-01-09T03:00:58.305Z,0
2019-01-09T03:01:38.852Z,0
2019-01-09T03:02:19.437Z,0
2019-01-09T03:03:00.013Z,0
2019-01-09T03:03:40.589Z,0
2019-01-09T03:04:21.157Z,0
2019-01-09T03:05:01.710Z,0
2019-01-09T03:05:42.257Z,0
2019-01-09T03:06:23.396Z,0
2019-01-09T03:07:03.389Z,0
2019-01-09T03:07:43.946Z,0
2019-01-09T03:08:24.514Z,0
2019-01-09T03:09:05.066Z,0
2019-01-09T03:09:45.642Z,0
2019-01-09T03:10:26.215Z,0
2019-01-09T03:11:06.796Z,0
2019-01-09T03:11:47.354Z,0
2019-01-09T03:12:27.947Z,0
2019-01-09T03:13:08.510Z,0
2019-01-09T03:13:49.062Z,0
2019-01-09T03:14:29.613Z,0
2019-01-09T03:15:10.168Z,0
2019-01-09T03:15:50.737Z,0
2019-01-09T03:16:31.295Z,0
2019-01-09T03:17:11.882Z,0
2019-01-09T03:17:52.446Z,0
2019-01-09T03:18:33.005Z,0
2019-01-09T03:19:13.598Z,0
2019-01-09T03:19:54.149Z,0
2019-01-09T03:20:34.707Z,0
2019-01-09T03:21:15.270Z,0
2019-01-09T03:21:55.843Z,0
2019-01-09T03:22:36.411Z,0
2019-01-09T03:23:16.979Z,0
2019-01-09T03:23:57.613Z,0
2019-01-09T03:24:38.183Z,0
2019-01-09T03:25:18.753Z,0
2019-01-09T03:25:59.295Z,0
2019-01-09T03:26:39.850Z,0
2019-01-09T03:27:20.450Z,0
2019-01-09T03:28:01.020Z,0
2019-01-09T03:28:41.610Z,0
2019-01-09T03:29:22.182Z,0
2019-01-09T03:30:03.054Z,0
2019-01-09T03:30:43.321Z,0
2019-01-09T03:31:23.899Z,0
2019-01-09T03:32:04.540Z,0
2019-01-09T03:32:45.323Z,0
2019-01-09T03:33:25.710Z,0
2019-01-09T03:34:06.520Z,0
2019-01-09T03:34:47.081Z,0
2019-01-09T03:35:28.325Z,0
2019-01-09T03:36:08.245Z,0
2019-01-09T03:36:48.804Z,0
2019-01-09T03:37:29.404Z,0
2019-01-09T03:38:09.973Z,0
2019-01-09T03:38:50.529Z,0
2019-01-09T03:39:31.096Z,0
2019-01-09T03:40:11.672Z,0
2019-01-09T03:40:52.249Z,0
2019-01-09T03:41:32.802Z,0
2019-01-09T03:42:13.405Z,0
2019-01-09T03:42:53.971Z,0
2019-01-09T03:43:34.535Z,0
2019-01-09T03:44:15.117Z,0
2019-01-09T03:44:55.687Z,0
2019-01-09T03:45:36.239Z,0
2019-01-09T03:46:16.794Z,0
2019-01-09T03:46:57.370Z,0
2019-01-09T03:47:37.948Z,0
2019-01-09T03:48:18.515Z,0
2019-01-09T03:48:59.132Z,0
2019-01-09T03:49:39.695Z,0
2019-01-09T03:50:20.265Z,0
2019-01-09T03:51:00.879Z,0
2019-01-09T03:51:41.439Z,0
2019-01-09T03:52:22.028Z,0
2019-01-09T03:53:02.573Z,0
2019-01-09T03:53:43.135Z,0
2019-01-09T03:54:23.684Z,0
2019-01-09T03:55:04.237Z,0
2019-01-09T03:55:44.829Z,0
2019-01-09T03:56:25.392Z,0
2019-01-09T03:57:05.946Z,0
2019-01-09T03:57:46.515Z,0
2019-01-09T03:58:27.105Z,0
2019-01-09T03:59:07.665Z,0
2019-01-09T03:59:48.231Z,0
2019-01-09T04:00:28.788Z,0
2019-01-09T04:01:09.374Z,0
2019-01-09T04:01:49.957Z,0
2019-01-09T04:02:30.524Z,0
2019-01-09T04:03:11.847Z,0
2019-01-09T04:03:52.407Z,0
2019-01-09T04:04:32.987Z,0
2019-01-09T04:05:13.553Z,0
2019-01-09T04:05:54.112Z,0
2019-01-09T04:06:41.759Z,0
2019-01-09T04:07:15.233Z,0
2019-01-09T04:07:55.796Z,0
2019-01-09T04:08:36.362Z,0
2019-01-09T04:09:16.971Z,0
2019-01-09T04:09:57.524Z,0
2019-01-09T04:10:38.089Z,0
2019-01-09T04:11:18.644Z,0
2019-01-09T04:11:59.211Z,0
2019-01-09T04:12:39.768Z,0
2019-01-09T04:13:20.356Z,0
2019-01-09T04:14:00.947Z,0
2019-01-09T04:14:41.531Z,0
2019-01-09T04:15:22.121Z,0
2019-01-09T04:16:02.714Z,0
2019-01-09T04:16:43.319Z,0
2019-01-09T04:17:23.865Z,0
2019-01-09T04:18:04.425Z,0
2019-01-09T04:18:45.081Z,0
2019-01-09T04:19:25.653Z,0
2019-01-09T04:20:06.205Z,0
2019-01-09T04:20:46.759Z,0
2019-01-09T04:21:27.331Z,0
2019-01-09T04:22:07.923Z,0
2019-01-09T04:22:48.470Z,0
2019-01-09T04:23:29.025Z,0
2019-01-09T04:24:09.602Z,0
2019-01-09T04:24:50.207Z,0
2019-01-09T04:25:30.771Z,0
2019-01-09T04:26:11.318Z,0
2019-01-09T04:26:51.913Z,0
2019-01-09T04:27:32.468Z,0
2019-01-09T04:28:13.037Z,0
2019-01-09T04:28:53.608Z,0
2019-01-09T04:29:34.186Z,0
2019-01-09T04:30:14.824Z,0
2019-01-09T04:30:55.381Z,0
2019-01-09T04:31:35.928Z,0
2019-01-09T04:32:16.497Z,0
2019-01-09T04:32:57.055Z,0
2019-01-09T04:33:37.624Z,0
2019-01-09T04:34:18.199Z,0
2019-01-09T04:34:58.762Z,0
2019-01-09T04:35:39.333Z,0
2019-01-09T04:36:19.993Z,0
2019-01-09T04:37:00.692Z,0
2019-01-09T04:37:41.127Z,0
2019-01-09T04:38:21.702Z,0
2019-01-09T04:39:02.257Z,0
2019-01-09T04:39:42.819Z,0
2019-01-09T04:40:23.382Z,0
2019-01-09T04:41:03.940Z,0
2019-01-09T04:41:44.507Z,0
2019-01-09T04:42:25.156Z,0
2019-01-09T04:43:05.701Z,0
2019-01-09T04:43:46.318Z,0
2019-01-09T04:44:26.882Z,0
2019-01-09T04:45:07.546Z,0
2019-01-09T04:45:48.120Z,0
2019-01-09T04:46:28.685Z,0
2019-01-09T04:47:09.236Z,0
2019-01-09T04:47:49.837Z,0
2019-01-09T04:48:30.405Z,0
2019-01-09T04:49:10.971Z,0
2019-01-09T04:49:51.546Z,0
2019-01-09T04:50:32.126Z,0
2019-01-09T04:51:12.686Z,0
2019-01-09T04:51:53.302Z,0
2019-01-09T04:52:33.869Z,0
2019-01-09T04:53:14.418Z,0
2019-01-09T04:53:54.978Z,0
2019-01-09T04:54:35.532Z,0
2019-01-09T04:55:16.102Z,0
2019-01-09T04:55:56.700Z,0
2019-01-09T04:56:37.249Z,0
2019-01-09T04:57:17.804Z,0
2019-01-09T04:57:58.370Z,0
2019-01-09T04:58:38.939Z,0
2019-01-09T04:59:19.562Z,0
2019-01-09T05:00:00.193Z,0
2019-01-09T05:00:40.707Z,0
2019-01-09T05:01:21.287Z,0
2019-01-09T05:02:01.869Z,0
2019-01-09T05:02:42.422Z,0
2019-01-09T05:03:23.025Z,0
2019-01-09T05:04:03.655Z,0
2019-01-09T05:04:44.214Z,0
2019-01-09T05:05:24.789Z,0
2019-01-09T05:06:05.345Z,0
2019-01-09T05:06:46.000Z,0
2019-01-09T05:07:26.485Z,0
2019-01-09T05:08:07.053Z,0
2019-01-09T05:08:47.615Z,0
2019-01-09T05:09:28.212Z,0
2019-01-09T05:10:08.778Z,0
2019-01-09T05:10:49.344Z,0
2019-01-09T05:11:29.900Z,0
2019-01-09T05:12:10.448Z,0
2019-01-09T05:12:51.011Z,0
2019-01-09T05:13:31.616Z,0
2019-01-09T05:14:12.191Z,0
2019-01-09T05:14:52.757Z,0
2019-01-09T05:15:33.307Z,0
2019-01-09T05:16:13.916Z,0
2019-01-09T05:16:54.493Z,0
2019-01-09T05:17:35.074Z,0
2019-01-09T05:18:15.647Z,0
2019-01-09T05:18:56.212Z,0
2019-01-09T05:19:36.786Z,0
2019-01-09T05:20:17.347Z,0
2019-01-09T05:20:57.911Z,0
2019-01-09T05:21:38.467Z,0
2019-01-09T05:22:19.031Z,0
2019-01-09T05:22:59.581Z,0
2019-01-09T05:23:40.151Z,0
2019-01-09T05:24:20.708Z,0
2019-01-09T05:25:01.258Z,0
2019-01-09T05:25:41.847Z,0
2019-01-09T05:26:22.390Z,0
2019-01-09T05:27:02.946Z,0
2019-01-09T05:27:43.519Z,0
2019-01-09T05:28:24.085Z,0
2019-01-09T05:29:04.658Z,0
2019-01-09T05:29:45.247Z,0
2019-01-09T05:30:25.854Z,0
2019-01-09T05:31:07.551Z,0
2019-01-09T05:31:47.039Z,0
2019-01-09T05:32:27.598Z,0
2019-01-09T05:33:08.162Z,0
2019-01-09T05:33:48.732Z,0
2019-01-09T05:34:29.831Z,0
2019-01-09T05:35:10.400Z,0
2019-01-09T05:35:50.961Z,0
2019-01-09T05:36:31.528Z,0
2019-01-09T05:37:12.089Z,0
2019-01-09T05:37:52.649Z,0
2019-01-09T05:38:33.974Z,0
2019-01-09T05:39:14.543Z,0
2019-01-09T05:39:55.102Z,0
2019-01-09T05:40:35.686Z,0
2019-01-09T05:41:16.247Z,0
2019-01-09T05:41:56.796Z,0
2019-01-09T05:42:37.432Z,0
2019-01-09T05:43:17.992Z,0
2019-01-09T05:43:58.582Z,0
2019-01-09T05:44:39.139Z,0
2019-01-09T05:45:19.700Z,0
2019-01-09T05:46:00.286Z,0
2019-01-09T05:46:40.881Z,0
2019-01-09T05:47:21.465Z,0
2019-01-09T05:48:02.036Z,0
2019-01-09T05:48:42.590Z,0
2019-01-09T05:49:23.165Z,0
2019-01-09T05:50:03.732Z,0
2019-01-09T05:50:44.314Z,0
2019-01-09T05:51:24.866Z,0
2019-01-09T05:52:05.434Z,0
2019-01-09T05:52:45.995Z,0
2019-01-09T05:53:26.546Z,0
2019-01-09T05:54:07.097Z,0
2019-01-09T05:54:47.651Z,0
2019-01-09T05:55:28.210Z,0
2019-01-09T05:56:08.776Z,0
2019-01-09T05:56:49.331Z,0
2019-01-09T05:57:29.894Z,0
2019-01-09T05:58:10.491Z,0
2019-01-09T05:58:51.088Z,0
2019-01-09T05:59:31.653Z,0
2019-01-09T06:00:12.250Z,0
2019-01-09T06:00:52.827Z,0
2019-01-09T06:01:33.374Z,0
2019-01-09T06:02:13.944Z,0
2019-01-09T06:02:54.516Z,0
2019-01-09T06:03:35.152Z,0
2019-01-09T06:04:15.718Z,0
2019-01-09T06:04:56.276Z,0
2019-01-09T06:05:36.827Z,0
2019-01-09T06:06:17.383Z,0
2019-01-09T06:06:57.937Z,0
2019-01-09T06:07:38.521Z,0
2019-01-09T06:08:19.103Z,0
2019-01-09T06:08:59.654Z,0
2019-01-09T06:09:40.397Z,0
2019-01-09T06:10:20.887Z,0
2019-01-09T06:11:01.456Z,0
2019-01-09T06:11:42.056Z,0
2019-01-09T06:12:22.632Z,0
2019-01-09T06:13:03.200Z,0
2019-01-09T06:13:43.747Z,0
2019-01-09T06:14:24.305Z,0
2019-01-09T06:15:04.925Z,0
2019-01-09T06:15:45.505Z,0
2019-01-09T06:16:26.087Z,0
2019-01-09T06:17:06.666Z,0
2019-01-09T06:17:47.242Z,0
2019-01-09T06:18:27.869Z,0
2019-01-09T06:19:08.439Z,0
2019-01-09T06:19:49.003Z,0
2019-01-09T06:20:29.566Z,0
2019-01-09T06:21:10.109Z,0
2019-01-09T06:21:50.693Z,0
2019-01-09T06:22:31.306Z,0
2019-01-09T06:23:11.905Z,0
2019-01-09T06:23:52.486Z,0
2019-01-09T06:24:33.047Z,0
2019-01-09T06:25:13.629Z,0
2019-01-09T06:25:54.166Z,0
2019-01-09T06:26:34.721Z,0
2019-01-09T06:27:15.303Z,0
2019-01-09T06:27:55.843Z,0
2019-01-09T06:28:36.418Z,0
2019-01-09T06:29:17.004Z,0
2019-01-09T06:29:57.569Z,0
2019-01-09T06:30:38.137Z,0
2019-01-09T06:31:18.693Z,0
2019-01-09T06:31:59.257Z,0
2019-01-09T06:32:39.814Z,0
2019-01-09T06:33:20.419Z,0
2019-01-09T06:34:00.973Z,0
2019-01-09T06:34:41.545Z,0
2019-01-09T06:35:22.114Z,0
2019-01-09T06:36:03.936Z,0
2019-01-09T06:36:43.233Z,0
2019-01-09T06:37:27.505Z,0
2019-01-09T06:38:04.357Z,0
2019-01-09T06:38:44.945Z,0
2019-01-09T06:39:25.489Z,0
2019-01-09T06:40:06.068Z,0
2019-01-09T06:40:46.649Z,0
2019-01-09T06:41:27.202Z,0
2019-01-09T06:42:07.788Z,0
2019-01-09T06:42:48.429Z,0
2019-01-09T06:43:29.011Z,0
2019-01-09T06:44:09.563Z,0
2019-01-09T06:44:50.150Z,0
2019-01-09T06:45:30.734Z,0
2019-01-09T06:46:11.297Z,0
2019-01-09T06:46:51.888Z,0
2019-01-09T06:47:32.460Z,0
2019-01-09T06:48:13.045Z,0
2019-01-09T06:48:53.618Z,0
2019-01-09T06:49:34.178Z,0
2019-01-09T06:50:14.762Z,0
2019-01-09T06:50:55.345Z,0
2019-01-09T06:51:35.901Z,4
2019-01-09T06:52:16.470Z,4
2019-01-09T06:52:57.023Z,0
2019-01-09T06:53:37.643Z,0
2019-01-09T06:54:18.235Z,0
2019-01-09T06:54:58.763Z,4
2019-01-09T06:55:39.340Z,4
2019-01-09T06:56:19.865Z,4
2019-01-09T06:57:00.445Z,4
2019-01-09T06:57:41.022Z,4
2019-01-09T06:58:21.589Z,4
2019-01-09T06:59:02.155Z,4
2019-01-09T06:59:42.710Z,4
2019-01-09T07:00:23.341Z,4
2019-01-09T07:01:03.886Z,4
2019-01-09T07:01:44.429Z,4
2019-01-09T07:02:24.991Z,4
2019-01-09T07:03:05.559Z,4
2019-01-09T07:03:46.157Z,4
2019-01-09T07:04:26.728Z,4
2019-01-09T07:05:07.314Z,4
2019-01-09T07:05:47.916Z,4
2019-01-09T07:06:28.519Z,8
2019-01-09T07:07:09.076Z,4
2019-01-09T07:07:49.674Z,4
2019-01-09T07:08:30.230Z,8
2019-01-09T07:09:10.793Z,8
2019-01-09T07:09:51.363Z,4
2019-01-09T07:10:31.950Z,4
2019-01-09T07:11:12.512Z,8
2019-01-09T07:11:53.187Z,8
2019-01-09T07:12:33.755Z,8
2019-01-09T07:13:14.536Z,12
2019-01-09T07:13:55.096Z,12
2019-01-09T07:14:35.679Z,12
2019-01-09T07:15:16.240Z,16
2019-01-09T07:15:56.824Z,12
2019-01-09T07:16:37.390Z,16
2019-01-09T07:17:17.942Z,16
2019-01-09T07:17:58.621Z,16
2019-01-09T07:18:39.179Z,16
2019-01-09T07:19:19.745Z,16
2019-01-09T07:20:00.337Z,20
2019-01-09T07:20:40.904Z,20
2019-01-09T07:21:21.458Z,20
2019-01-09T07:22:02.008Z,20
2019-01-09T07:22:42.599Z,24
2019-01-09T07:23:23.158Z,24
2019-01-09T07:24:03.723Z,24
2019-01-09T07:24:44.278Z,28
2019-01-09T07:25:24.861Z,24
2019-01-09T07:26:05.474Z,28
2019-01-09T07:26:46.067Z,28
2019-01-09T07:27:26.660Z,28
2019-01-09T07:28:07.246Z,36
2019-01-09T07:28:47.802Z,36
2019-01-09T07:29:28.375Z,36
2019-01-09T07:30:08.925Z,40
2019-01-09T07:30:49.486Z,44
2019-01-09T07:31:30.086Z,48
2019-01-09T07:32:10.653Z,52
2019-01-09T07:32:51.218Z,52
2019-01-09T07:33:31.834Z,52
2019-01-09T07:34:12.427Z,52
2019-01-09T07:34:53.281Z,52
2019-01-09T07:35:33.832Z,56
2019-01-09T07:36:14.391Z,60
2019-01-09T07:36:55.030Z,64
2019-01-09T07:37:35.584Z,72
2019-01-09T07:38:16.145Z,92
2019-01-09T07:38:56.717Z,92
2019-01-09T07:39:37.272Z,100
2019-01-09T07:40:18.907Z,108
2019-01-09T07:40:58.409Z,116
2019-01-09T07:41:38.988Z,120
2019-01-09T07:42:19.551Z,112
2019-01-09T07:43:00.118Z,124
2019-01-09T07:43:40.750Z,124
2019-01-09T07:44:21.330Z,124
2019-01-09T07:45:01.931Z,112
2019-01-09T07:45:42.513Z,108
2019-01-09T07:46:23.159Z,108
2019-01-09T07:47:03.769Z,116
2019-01-09T07:47:45.176Z,128
2019-01-09T07:48:25.742Z,152
2019-01-09T07:49:06.331Z,148
2019-01-09T07:49:47.635Z,156
2019-01-09T07:50:28.195Z,164
2019-01-09T07:51:08.761Z,160
2019-01-09T07:51:49.351Z,164
2019-01-09T07:52:29.911Z,176
2019-01-09T07:53:10.522Z,172
2019-01-09T07:53:51.070Z,172
2019-01-09T07:54:31.625Z,196
2019-01-09T07:55:12.220Z,212
2019-01-09T07:55:52.851Z,212
2019-01-09T07:56:33.424Z,232
2019-01-09T07:57:14.002Z,240
2019-01-09T07:57:54.570Z,252
2019-01-09T07:58:35.144Z,232
2019-01-09T07:59:15.712Z,264
2019-01-09T07:59:56.295Z,256
2019-01-09T08:00:36.865Z,260
2019-01-09T08:01:17.543Z,284
2019-01-09T08:01:58.182Z,292
2019-01-09T08:02:38.727Z,292
2019-01-09T08:03:19.347Z,264
2019-01-09T08:03:59.894Z,248
2019-01-09T08:04:40.455Z,268
2019-01-09T08:05:21.119Z,272
2019-01-09T08:06:01.701Z,276
2019-01-09T08:06:42.239Z,260
2019-01-09T08:07:22.901Z,272
2019-01-09T08:08:03.580Z,272
2019-01-09T08:08:44.178Z,268
2019-01-09T08:09:24.858Z,280
2019-01-09T08:10:05.404Z,288
2019-01-09T08:10:48.155Z,264
2019-01-09T08:11:28.740Z,256
2019-01-09T08:12:09.469Z,256
2019-01-09T08:12:50.033Z,268
2019-01-09T08:13:30.612Z,276
2019-01-09T08:14:11.216Z,276
2019-01-09T08:14:51.792Z,280
2019-01-09T08:15:32.345Z,280
2019-01-09T08:16:12.916Z,276
2019-01-09T08:16:53.473Z,292
2019-01-09T08:17:34.030Z,292
2019-01-09T08:18:14.585Z,300
2019-01-09T08:18:55.148Z,292
2019-01-09T08:19:35.715Z,308
2019-01-09T08:20:16.289Z,304
2019-01-09T08:21:04.964Z,300
2019-01-09T08:21:37.540Z,308
2019-01-09T08:22:18.242Z,308
2019-01-09T08:22:58.856Z,320
2019-01-09T08:23:39.542Z,304
2019-01-09T08:24:20.089Z,300
2019-01-09T08:25:00.690Z,300
2019-01-09T08:25:41.300Z,308
2019-01-09T08:26:21.871Z,308
2019-01-09T08:27:02.423Z,280
2019-01-09T08:27:43.087Z,264
2019-01-09T08:28:23.645Z,256
2019-01-09T08:29:04.225Z,268
2019-01-09T08:29:44.787Z,272
2019-01-09T08:30:25.362Z,260
2019-01-09T08:31:05.918Z,240
2019-01-09T08:31:46.497Z,252
2019-01-09T08:32:27.062Z,260
2019-01-09T08:33:07.617Z,284
2019-01-09T08:33:48.176Z,260
2019-01-09T08:34:28.737Z,264
2019-01-09T08:35:09.334Z,256
2019-01-09T08:35:49.898Z,264
2019-01-09T08:36:30.489Z,272
2019-01-09T08:37:11.059Z,264
2019-01-09T08:37:51.624Z,276
2019-01-09T08:38:32.182Z,260
2019-01-09T08:39:12.755Z,256
2019-01-09T08:39:53.403Z,276
2019-01-09T08:40:33.962Z,280
2019-01-09T08:41:14.540Z,276
2019-01-09T08:41:55.201Z,280
2019-01-09T08:42:35.758Z,284
2019-01-09T08:43:16.306Z,292
2019-01-09T08:43:57.092Z,300
2019-01-09T08:44:37.678Z,304
2019-01-09T08:45:18.263Z,308
2019-01-09T08:45:58.809Z,340
2019-01-09T08:46:39.406Z,328
2019-01-09T08:47:20.016Z,320
2019-01-09T08:48:00.651Z,336
2019-01-09T08:48:41.223Z,336
2019-01-09T08:49:21.800Z,324
2019-01-09T08:50:02.381Z,364
2019-01-09T08:50:43.079Z,368
2019-01-09T08:51:23.620Z,364
2019-01-09T08:52:04.340Z,380
2019-01-09T08:52:44.913Z,388
2019-01-09T08:53:25.482Z,392
2019-01-09T08:54:06.058Z,380
2019-01-09T08:54:46.639Z,380
2019-01-09T08:55:27.250Z,408
2019-01-09T08:56:07.807Z,420
2019-01-09T08:56:48.380Z,400
2019-01-09T08:57:28.936Z,404
2019-01-09T08:58:09.529Z,420
2019-01-09T08:58:50.087Z,424
2019-01-09T08:59:30.644Z,424
2019-01-09T09:00:11.240Z,424
2019-01-09T09:00:51.766Z,452
2019-01-09T09:01:32.318Z,484
2019-01-09T09:02:12.873Z,460
2019-01-09T09:02:53.431Z,436
2019-01-09T09:03:34.030Z,456
2019-01-09T09:04:14.595Z,440
2019-01-09T09:04:55.151Z,436
2019-01-09T09:05:35.720Z,488
2019-01-09T09:06:16.290Z,500
2019-01-09T09:06:56.872Z,492
2019-01-09T09:07:39.449Z,516
2019-01-09T09:08:18.011Z,496
2019-01-09T09:08:58.580Z,476
2019-01-09T09:09:39.315Z,492
2019-01-09T09:10:19.835Z,488
2019-01-09T09:11:00.395Z,512
2019-01-09T09:11:40.981Z,492
2019-01-09T09:12:21.549Z,488
2019-01-09T09:13:02.108Z,520
2019-01-09T09:13:42.661Z,536
2019-01-09T09:14:23.240Z,512
2019-01-09T09:15:03.790Z,508
2019-01-09T09:15:44.396Z,560
2019-01-09T09:16:24.955Z,556
2019-01-09T09:17:05.524Z,560
2019-01-09T09:17:46.103Z,568
2019-01-09T09:18:26.662Z,552
2019-01-09T09:19:07.199Z,580
2019-01-09T09:19:47.802Z,584
2019-01-09T09:20:28.362Z,592
2019-01-09T09:21:08.954Z,592
2019-01-09T09:21:49.549Z,576
2019-01-09T09:22:30.107Z,644
2019-01-09T09:23:10.713Z,688
2019-01-09T09:23:51.266Z,676
2019-01-09T09:24:31.837Z,712
2019-01-09T09:25:12.397Z,752
2019-01-09T09:25:52.968Z,800
2019-01-09T09:26:33.520Z,824
2019-01-09T09:27:14.102Z,764
2019-01-09T09:27:54.659Z,860
2019-01-09T09:28:35.223Z,796
2019-01-09T09:29:15.764Z,736
2019-01-09T09:29:56.348Z,708
2019-01-09T09:30:36.925Z,632
2019-01-09T09:31:17.507Z,736
2019-01-09T09:31:58.069Z,800
2019-01-09T09:32:38.622Z,748
2019-01-09T09:33:19.190Z,748
2019-01-09T09:33:59.752Z,712
2019-01-09T09:34:40.585Z,696
2019-01-09T09:35:21.154Z,688
2019-01-09T09:36:01.737Z,596
2019-01-09T09:36:42.346Z,664
2019-01-09T09:37:22.909Z,724
2019-01-09T09:38:03.474Z,816
2019-01-09T09:38:44.033Z,896
2019-01-09T09:39:24.586Z,904
2019-01-09T09:40:05.158Z,828
2019-01-09T09:40:45.741Z,848
2019-01-09T09:41:26.326Z,876
2019-01-09T09:42:06.907Z,820
2019-01-09T09:42:47.495Z,828
2019-01-09T09:43:28.068Z,888
2019-01-09T09:44:08.624Z,944
2019-01-09T09:44:49.204Z,1020
2019-01-09T09:45:29.754Z,940
2019-01-09T09:46:10.312Z,912
2019-01-09T09:46:50.879Z,956
2019-01-09T09:47:31.440Z,1008
2019-01-09T09:48:12.005Z,1048
2019-01-09T09:48:52.562Z,1044
2019-01-09T09:49:33.098Z,1016